Terminal Aerodrome Forecast
Issued by NWS

Home | Current Version | Previous Version | Text Only | Print | Product List | Glossary On
Versions: 1 2 3 4 5 6 7 8 9 10 11 12 13 14 15 16 17 18 19 20 21 22 23 24 25 26
000
FTUS41 KOKX 261700
TAFTEB
TAF
KTEB 261731Z 2618/2718 22010KT P6SM SCT060
     FM270100 20005KT P6SM FEW015 SCT040 BKN100
     FM271000 19006KT 5SM SHRA BR SCT015 BKN040
     FM271500 21011KT P6SM SCT040 SCT100=

USA.gov is the U.S. government's official web portal to all federal, state and local government web resources and services.